Time;durP1;ratioP1;P1;durP2;ratioP2;P2;SDS_P1;SDS_P2;PMS_P1;PMS_P2;Temp;Humidity;BMP_temperature;BMP_pressure;BME280_temperature;BME280_humidity;BME280_pressure;Samples;Min_cycle;Max_cycle;Signal;HPM_P1;HPM_P2
2021/05/21 00:05:36;;;;;;;7.37;3.77;;;22.50;43.20;;;;;;20835126;28;20509;-64
2021/05/21 00:15:38;;;;;;;8.23;3.90;;;22.40;43.50;;;;;;20833854;28;20501;-65
2021/05/21 00:25:39;;;;;;;10.93;3.70;;;22.40;43.80;;;;;;20832835;28;20487;-63
2021/05/21 00:35:40;;;;;;;6.47;3.10;;;22.30;43.90;;;;;;20832007;28;20104;-64
2021/05/21 00:45:42;;;;;;;7.10;3.45;;;22.20;44.00;;;;;;20831907;28;20144;-61
2021/05/21 00:55:43;;;;;;;7.75;3.45;;;22.20;44.20;;;;;;20830570;28;20088;-63
2021/05/21 01:05:44;;;;;;;9.82;3.42;;;22.10;44.60;;;;;;20830176;28;20471;-65
2021/05/21 01:15:45;;;;;;;6.97;3.47;;;21.90;44.90;;;;;;20829354;28;20053;-63
2021/05/21 01:25:47;;;;;;;7.25;3.67;;;21.80;45.00;;;;;;20829536;28;20064;-64
2021/05/21 01:35:48;;;;;;;6.80;3.45;;;21.70;45.30;;;;;;20828306;28;20049;-64
2021/05/21 01:45:50;;;;;;;5.43;3.22;;;21.60;45.50;;;;;;20828255;28;20086;-64
2021/05/21 01:55:51;;;;;;;11.43;3.20;;;21.50;45.40;;;;;;20828062;28;20065;-64
2021/05/21 02:05:53;;;;;;;9.20;3.38;;;21.40;46.00;;;;;;20838032;28;20060;-64
2021/05/21 02:15:54;;;;;;;6.53;2.97;;;21.30;46.80;;;;;;20843708;28;20061;-64
2021/05/21 02:25:55;;;;;;;11.60;3.70;;;21.20;46.80;;;;;;20857050;28;20049;-62
2021/05/21 02:35:56;;;;;;;10.55;3.50;;;21.30;45.70;;;;;;20846786;28;20068;-63
2021/05/21 02:45:58;;;;;;;9.45;3.55;;;21.30;44.90;;;;;;20852006;28;20046;-63
2021/05/21 02:55:59;;;;;;;12.23;3.60;;;21.20;44.80;;;;;;20841489;28;20402;-64
2021/05/21 03:06:00;;;;;;;13.80;3.92;;;21.20;44.90;;;;;;20838915;28;20509;-63
2021/05/21 03:16:02;;;;;;;6.78;3.83;;;21.20;45.00;;;;;;20838208;28;20455;-63
2021/05/21 03:26:03;;;;;;;11.07;3.60;;;21.00;45.20;;;;;;20837195;28;20097;-64
2021/05/21 03:36:05;;;;;;;10.38;3.35;;;20.90;45.00;;;;;;20835994;28;20498;-63
2021/05/21 03:46:06;;;;;;;8.07;4.43;;;20.80;45.40;;;;;;20835392;28;20054;-63
2021/05/21 03:56:08;;;;;;;6.63;3.67;;;20.60;45.80;;;;;;20835062;28;20049;-65
2021/05/21 04:06:09;;;;;;;6.70;3.58;;;20.50;46.00;;;;;;20834154;28;20045;-64
2021/05/21 04:16:13;;;;;;;17.00;5.22;;;20.30;46.60;;;;;;20833411;28;20041;-64
2021/05/21 04:26:15;;;;;;;7.18;3.10;;;20.20;46.90;;;;;;20833594;28;20061;-63
2021/05/21 04:36:17;;;;;;;;;;;20.10;49.30;;;;;;20832363;28;20494;-62
2021/05/21 04:46:19;;;;;;;7.10;2.97;;;19.50;50.90;;;;;;20831335;28;20320;-63
2021/05/21 04:56:20;;;;;;;6.63;2.78;;;19.40;52.50;;;;;;20831332;28;20049;-64
2021/05/21 05:06:21;;;;;;;6.93;2.38;;;19.20;52.60;;;;;;20830059;28;20095;-63
2021/05/21 05:16:22;;;;;;;7.63;2.40;;;18.90;53.00;;;;;;20828046;28;20045;-63
2021/05/21 05:26:24;;;;;;;6.90;2.80;;;18.70;53.30;;;;;;20829255;28;20091;-64
2021/05/21 05:36:25;;;;;;;59.75;7.93;;;18.90;53.20;;;;;;20831942;28;20054;-64
2021/05/21 05:46:27;;;;;;;10.88;3.17;;;18.90;54.50;;;;;;20845169;28;20046;-64
2021/05/21 05:56:28;;;;;;;13.85;4.03;;;19.10;54.20;;;;;;20845187;28;20049;-63
2021/05/21 06:06:30;;;;;;;10.95;3.25;;;19.20;54.20;;;;;;20844028;28;20460;-63
2021/05/21 06:16:31;;;;;;;11.45;3.30;;;19.30;54.70;;;;;;20842912;28;20119;-63
2021/05/21 06:26:42;;;;;;;10.95;3.42;;;19.50;54.50;;;;;;20841883;28;20132;-64
2021/05/21 06:36:43;;;;;;;11.02;3.28;;;19.60;53.80;;;;;;20839845;28;20045;-61
2021/05/21 06:46:44;;;;;;;12.88;3.30;;;19.60;54.10;;;;;;20839859;28;20057;-64
2021/05/21 06:56:45;;;;;;;15.68;4.57;;;19.80;53.70;;;;;;20839212;28;20142;-63
2021/05/21 07:06:47;;;;;;;13.43;4.10;;;20.30;51.90;;;;;;20840212;28;20085;-64
2021/05/21 07:16:48;;;;;;;12.57;4.20;;;20.90;50.70;;;;;;20837684;28;20080;-64
2021/05/21 07:26:49;;;;;;;18.38;4.90;;;21.40;50.20;;;;;;20837575;28;20482;-63
2021/05/21 07:36:51;;;;;;;10.15;4.13;;;22.00;48.40;;;;;;20836034;28;20104;-62
2021/05/21 07:46:53;;;;;;;13.27;3.38;;;22.60;47.10;;;;;;20836225;28;20053;-63
2021/05/21 07:56:54;;;;;;;9.23;2.67;;;23.00;45.10;;;;;;20834476;28;20057;-64
2021/05/21 08:06:55;;;;;;;11.30;3.08;;;23.60;43.20;;;;;;20833061;28;20048;-64
2021/05/21 08:16:57;;;;;;;9.02;2.92;;;24.00;42.10;;;;;;20833412;28;20060;-64
2021/05/21 08:26:58;;;;;;;8.87;3.40;;;24.40;41.30;;;;;;20838774;28;20049;-69
2021/05/21 08:36:59;;;;;;;9.40;2.90;;;25.00;40.40;;;;;;20856232;28;20107;-61
2021/05/21 08:47:01;;;;;;;10.30;3.17;;;25.50;38.80;;;;;;20846864;28;20053;-69
2021/05/21 08:57:07;;;;;;;14.17;2.83;;;25.80;37.80;;;;;;20832338;28;20088;-67
2021/05/21 09:07:21;;;;;;;10.93;2.17;;;26.10;37.40;;;;;;20830973;28;20088;-63
2021/05/21 09:17:25;;;;;;;8.73;3.28;;;26.60;36.60;;;;;;20830803;28;20136;-63
2021/05/21 09:27:26;;;;;;;6.75;2.50;;;26.90;36.30;;;;;;20828429;28;20049;-65
2021/05/21 09:37:29;;;;;;;6.95;2.53;;;26.60;36.20;;;;;;20829181;28;20182;-59
2021/05/21 09:47:55;;;;;;;6.60;2.85;;;26.90;36.00;;;;;;20842878;28;20140;-63
2021/05/21 09:57:57;;;;;;;7.10;2.42;;;27.10;35.20;;;;;;20827678;28;20045;-63
2021/05/21 10:07:58;;;;;;;6.38;4.15;;;27.20;35.00;;;;;;20827584;28;20050;-62
2021/05/21 10:18:00;;;;;;;7.85;1.98;;;27.20;32.60;;;;;;20842475;28;20045;-66
2021/05/21 10:28:06;;;;;;;2.75;1.60;;;27.40;31.30;;;;;;20841268;28;20068;-60
2021/05/21 10:38:28;;;;;;;4.53;1.40;;;27.40;31.20;;;;;;20841729;28;20074;-68
2021/05/21 10:48:29;;;;;;;3.25;1.58;;;27.60;30.80;;;;;;20840576;28;20559;-59
2021/05/21 10:58:34;;;;;;;5.20;1.60;;;27.70;30.80;;;;;;20839490;28;20084;-64
2021/05/21 11:08:44;;;;;;;8.30;2.17;;;27.90;30.70;;;;;;20838051;28;20053;-58
2021/05/21 11:18:47;;;;;;;3.97;2.30;;;28.20;30.60;;;;;;20837825;28;20482;-61
2021/05/21 11:28:49;;;;;;;3.20;1.60;;;28.50;28.50;;;;;;20836749;28;20077;-59
2021/05/21 11:38:51;;;;;;;7.05;2.00;;;28.40;29.40;;;;;;20834226;28;20132;-71
2021/05/21 11:48:52;;;;;;;9.27;1.42;;;28.60;28.40;;;;;;20851213;28;20457;-61
2021/05/21 11:58:58;;;;;;;4.07;1.40;;;28.70;27.10;;;;;;20833827;28;20048;-63
2021/05/21 12:08:59;;;;;;;6.40;1.83;;;28.70;26.70;;;;;;20832976;28;20084;-63
2021/05/21 12:19:02;;;;;;;8.77;1.77;;;29.10;26.70;;;;;;20832357;28;20132;-62
2021/05/21 12:29:08;;;;;;;7.43;2.10;;;29.00;25.80;;;;;;20831690;28;20077;-64
2021/05/21 12:39:11;;;;;;;6.68;2.60;;;28.90;26.40;;;;;;20831561;28;20061;-64
2021/05/21 12:49:16;;;;;;;7.13;2.60;;;30.00;25.10;;;;;;20830433;28;20061;-63
2021/05/21 12:59:17;;;;;;;6.80;2.00;;;29.30;26.20;;;;;;20830157;28;20077;-62
2021/05/21 13:09:19;;;;;;;4.10;1.90;;;29.30;27.30;;;;;;20829717;28;20559;-62
2021/05/21 13:19:25;;;;;;;7.05;1.70;;;29.20;27.00;;;;;;20829267;28;20084;-63
2021/05/21 13:29:27;;;;;;;3.90;1.80;;;29.40;27.00;;;;;;20828780;28;20490;-62
2021/05/21 13:39:28;;;;;;;4.18;2.17;;;29.10;27.30;;;;;;20828310;28;20505;-62
2021/05/21 13:49:31;;;;;;;4.43;2.08;;;29.50;27.20;;;;;;20828319;28;20060;-62
2021/05/21 13:59:32;;;;;;;8.07;2.60;;;29.30;26.50;;;;;;20833793;28;20092;-63
2021/05/21 14:09:34;;;;;;;10.63;2.78;;;29.40;25.90;;;;;;20842718;28;20085;-62
2021/05/21 14:19:35;;;;;;;10.32;3.53;;;29.80;25.80;;;;;;20842261;28;20072;-62
2021/05/21 14:29:36;;;;;;;11.95;2.90;;;29.90;25.80;;;;;;20846225;28;20498;-62
2021/05/21 14:39:38;;;;;;;10.00;2.08;;;29.70;25.10;;;;;;20840883;28;20156;-63
2021/05/21 14:49:39;;;;;;;8.43;2.42;;;29.90;24.30;;;;;;20840338;28;20068;-62
2021/05/21 14:59:40;;;;;;;9.70;2.65;;;30.00;23.40;;;;;;20840234;28;20108;-66
2021/05/21 15:09:41;;;;;;;9.68;2.60;;;30.50;20.80;;;;;;20838371;28;20546;-62
2021/05/21 15:30:04;;;;;;;5.88;1.80;;;29.30;20.90;;;;;;20836373;28;20144;-62
2021/05/21 15:40:06;;;;;;;9.45;2.28;;;29.20;21.10;;;;;;20836271;28;20083;-61
2021/05/21 15:50:19;;;;;;;6.18;2.13;;;28.90;21.50;;;;;;20835284;28;20195;-63
2021/05/21 16:00:20;;;;;;;5.57;1.50;;;28.80;21.10;;;;;;20854543;28;20430;-62
2021/05/21 16:10:27;;;;;;;11.15;2.13;;;28.60;22.00;;;;;;20895697;28;20136;-71
2021/05/21 16:20:28;;;;;;;7.70;1.95;;;28.60;22.70;;;;;;20865472;28;20486;-67
2021/05/21 16:30:30;;;;;;;10.85;2.95;;;28.60;23.20;;;;;;20865882;28;20049;-62
2021/05/21 16:40:32;;;;;;;12.05;2.00;;;28.50;24.00;;;;;;20915694;28;20394;-68
2021/05/21 16:50:34;;;;;;;9.80;1.98;;;28.60;24.10;;;;;;20914870;28;20064;-63
2021/05/21 17:00:35;;;;;;;7.88;1.65;;;28.40;25.20;;;;;;20913794;28;20099;-68
2021/05/21 17:10:37;;;;;;;8.07;1.27;;;28.30;25.20;;;;;;20912774;28;20088;-68
2021/05/21 18:12:19;;;;;;;2.58;1.08;;;27.40;27.90;;;;;;20671949;28;20125;-68
2021/05/21 18:43:38;;;;;;;2.40;1.10;;;26.90;29.80;;;;;;20909355;28;20053;-67
2021/05/21 19:03:36;;;;;;;2.38;0.77;;;26.50;30.70;;;;;;20840762;28;20150;-68
2021/05/21 19:13:55;;;;;;;2.85;1.30;;;26.30;31.10;;;;;;20839606;28;20115;-65
2021/05/21 19:23:56;;;;;;;1.35;0.70;;;26.10;31.80;;;;;;20838320;28;20406;-66
2021/05/21 20:14:48;;;;;;;5.93;1.30;;;25.20;34.00;;;;;;20833838;28;20092;-65
2021/05/21 20:24:49;;;;;;;4.43;0.93;;;25.10;34.70;;;;;;20848051;28;20490;-65
2021/05/21 21:06:18;;;;;;;2.28;0.80;;;24.00;39.00;;;;;;20831536;28;20046;-66
2021/05/21 21:16:30;;;;;;;2.47;0.73;;;23.60;39.00;;;;;;20830492;28;20363;-64
2021/05/21 22:28:02;;;;;;;3.63;0.82;;;22.40;42.70;;;;;;20752327;28;20495;-64
2021/05/21 22:38:04;;;;;;;1.50;0.90;;;22.30;43.20;;;;;;20752353;28;20081;-65
2021/05/21 22:48:06;;;;;;;4.25;1.98;;;22.30;43.20;;;;;;20770986;28;20088;-64
2021/05/21 22:58:07;;;;;;;1.75;0.93;;;22.20;43.40;;;;;;20841725;28;20072;-64
2021/05/21 23:08:09;;;;;;;1.48;0.70;;;22.10;43.70;;;;;;20841395;28;20136;-64
2021/05/21 23:18:10;;;;;;;2.17;0.70;;;22.00;43.90;;;;;;20839481;28;20536;-62
2021/05/21 23:28:12;;;;;;;2.10;1.08;;;21.90;44.20;;;;;;20838144;28;20514;-64
2021/05/21 23:38:13;;;;;;;3.05;1.60;;;21.70;44.60;;;;;;20838232;28;20136;-64
2021/05/21 23:48:14;;;;;;;4.50;1.65;;;21.70;44.90;;;;;;20837260;28;20413;-64
2021/05/21 23:58:15;;;;;;;4.10;2.55;;;21.60;45.30;;;;;;20851616;28;20049;-63
